Time;durP1;ratioP1;P1;durP2;ratioP2;P2;SDS_P1;SDS_P2;PMS_P1;PMS_P2;Temp;Humidity;BMP_temperature;BMP_pressure;BME280_temperature;BME280_humidity;BME280_pressure;Samples;Min_cycle;Max_cycle;Signal;HPM_P1;HPM_P2
2023/07/28 00:01:03;;;;;;;0.97;0.97;;;15.10;99.90;;;;;;5053389;28;20535;-70
2023/07/28 00:03:28;;;;;;;1.43;1.23;;;15.10;99.90;;;;;;5053505;28;20218;-71
2023/07/28 00:05:54;;;;;;;0.73;0.73;;;15.00;99.90;;;;;;5053478;28;20202;-70
2023/07/28 00:08:19;;;;;;;1.33;0.70;;;14.90;99.90;;;;;;5053637;28;20173;-70
2023/07/28 00:10:45;;;;;;;0.60;0.60;;;14.90;99.90;;;;;;5053261;28;20209;-69
2023/07/28 00:13:10;;;;;;;0.60;0.60;;;14.80;99.90;;;;;;5053375;28;20686;-70
2023/07/28 00:15:36;;;;;;;1.63;0.97;;;14.80;99.90;;;;;;5053365;28;20174;-70
2023/07/28 00:18:02;;;;;;;6.80;1.60;;;14.80;99.90;;;;;;5053180;28;20176;-70
2023/07/28 00:20:28;;;;;;;1.00;1.00;;;14.70;99.90;;;;;;5053359;28;20182;-68
2023/07/28 00:22:53;;;;;;;1.07;1.07;;;14.70;99.90;;;;;;5053248;28;20620;-68
2023/07/28 00:25:19;;;;;;;1.20;1.10;;;14.70;99.90;;;;;;5053373;28;20530;-70
2023/07/28 00:27:45;;;;;;;0.40;0.40;;;14.80;99.90;;;;;;5053239;28;20326;-69
2023/07/28 00:30:12;;;;;;;1.53;0.90;;;14.90;99.90;;;;;;5053470;28;20186;-70
2023/07/28 00:32:37;;;;;;;0.80;0.80;;;14.90;99.90;;;;;;5053081;28;20253;-69
2023/07/28 00:35:03;;;;;;;1.73;1.33;;;14.90;99.90;;;;;;5053111;28;20479;-69
2023/07/28 00:37:29;;;;;;;1.17;1.07;;;14.90;99.90;;;;;;5053135;28;20534;-69
2023/07/28 00:39:55;;;;;;;0.97;0.97;;;14.90;99.90;;;;;;5053120;28;20436;-69
2023/07/28 00:42:20;;;;;;;1.57;1.30;;;14.90;99.90;;;;;;5052920;28;20252;-69
2023/07/28 00:44:46;;;;;;;1.43;0.60;;;15.10;99.90;;;;;;5053013;28;20746;-68
2023/07/28 00:47:12;;;;;;;0.60;0.60;;;15.10;99.90;;;;;;5053109;28;20397;-70
2023/07/28 00:49:39;;;;;;;0.60;0.60;;;15.10;99.90;;;;;;5052795;28;20252;-71
2023/07/28 00:52:07;;;;;;;0.77;0.77;;;15.10;99.90;;;;;;5053333;28;20172;-70
2023/07/28 00:54:34;;;;;;;2.07;1.63;;;15.10;99.90;;;;;;5053114;28;20506;-70
2023/07/28 00:57:01;;;;;;;1.20;1.20;;;15.00;99.90;;;;;;5053127;28;20412;-69
2023/07/28 00:59:27;;;;;;;1.43;1.30;;;15.00;99.90;;;;;;5052978;28;20431;-70
2023/07/28 01:01:53;;;;;;;0.60;0.50;;;14.90;99.90;;;;;;5052724;28;20408;-71
2023/07/28 01:04:19;;;;;;;1.10;1.00;;;14.90;99.90;;;;;;5052956;28;20795;-69
2023/07/28 01:07:09;;;;;;;0.87;0.87;;;14.90;99.90;;;;;;5052836;28;20196;-69
2023/07/28 01:09:44;;;;;;;1.00;0.90;;;14.90;99.90;;;;;;5053012;28;20421;-70
2023/07/28 01:12:10;;;;;;;1.07;0.60;;;14.90;99.90;;;;;;5056627;28;20784;-69
2023/07/28 01:14:36;;;;;;;0.60;0.60;;;14.90;99.90;;;;;;5056781;28;20491;-69
2023/07/28 01:17:01;;;;;;;1.47;1.23;;;14.90;99.90;;;;;;5056879;28;20308;-70
2023/07/28 01:19:27;;;;;;;2.00;1.00;;;14.90;99.90;;;;;;5056698;28;20204;-71
2023/07/28 01:22:30;;;;;;;2.20;1.50;;;15.00;99.90;;;;;;5056521;28;20767;-70
2023/07/28 01:25:32;;;;;;;1.00;0.90;;;15.10;99.90;;;;;;5056737;28;20790;-69
2023/07/28 01:27:59;;;;;;;1.03;0.93;;;15.10;99.90;;;;;;5056539;28;20747;-69
2023/07/28 01:30:26;;;;;;;0.77;0.70;;;15.00;99.90;;;;;;5056334;28;20591;-71
2023/07/28 01:32:55;;;;;;;0.83;0.83;;;15.00;99.90;;;;;;5056274;28;20397;-70
2023/07/28 01:35:21;;;;;;;0.73;0.60;;;14.90;99.90;;;;;;5056473;28;20408;-70
2023/07/28 01:37:50;;;;;;;0.87;0.80;;;14.90;99.90;;;;;;5056230;28;20951;-69
2023/07/28 01:40:17;;;;;;;0.70;0.70;;;14.90;99.90;;;;;;5056804;28;20194;-69
2023/07/28 01:42:42;;;;;;;0.70;0.70;;;14.90;99.90;;;;;;5056031;28;20492;-69
2023/07/28 01:45:08;;;;;;;4.87;1.47;;;14.90;99.90;;;;;;5056002;28;20484;-71
2023/07/28 01:47:34;;;;;;;0.93;0.93;;;14.80;99.90;;;;;;5056177;28;20191;-70
2023/07/28 01:50:00;;;;;;;1.03;1.00;;;14.80;99.90;;;;;;5055843;28;20440;-71
2023/07/28 01:52:25;;;;;;;1.83;1.73;;;14.80;99.90;;;;;;5055994;28;20166;-70
2023/07/28 01:54:51;;;;;;;1.10;1.10;;;14.80;99.90;;;;;;5056092;28;20220;-70
2023/07/28 01:57:17;;;;;;;1.40;1.40;;;14.90;99.90;;;;;;5056109;28;20166;-70
2023/07/28 01:59:43;;;;;;;0.67;0.67;;;14.70;99.90;;;;;;5055726;28;20280;-71
2023/07/28 02:02:09;;;;;;;2.00;1.47;;;14.80;99.90;;;;;;5055706;28;20439;-68
2023/07/28 02:04:35;;;;;;;1.00;0.73;;;14.80;99.90;;;;;;5055762;28;20457;-69
2023/07/28 02:07:00;;;;;;;1.97;1.10;;;14.70;99.90;;;;;;5056130;28;20470;-70
2023/07/28 02:09:26;;;;;;;1.70;1.60;;;14.80;99.90;;;;;;5055599;28;20626;-70
2023/07/28 02:11:52;;;;;;;1.83;1.20;;;14.90;99.90;;;;;;5055518;28;20534;-69
2023/07/28 02:14:18;;;;;;;1.00;1.00;;;15.00;99.90;;;;;;5055494;28;20227;-71
2023/07/28 02:16:44;;;;;;;1.33;1.00;;;15.00;99.90;;;;;;5055625;28;20503;-69
2023/07/28 02:19:10;;;;;;;1.77;1.20;;;15.10;99.90;;;;;;5055424;28;20212;-69
2023/07/28 02:21:35;;;;;;;1.00;1.00;;;15.10;99.90;;;;;;5055360;28;20813;-69
2023/07/28 02:24:01;;;;;;;1.07;1.07;;;15.20;99.90;;;;;;5055570;28;20202;-69
2023/07/28 02:26:27;;;;;;;2.07;0.83;;;15.20;99.90;;;;;;5055591;28;20200;-70
2023/07/28 02:28:52;;;;;;;1.80;1.70;;;15.20;99.90;;;;;;5055252;28;20236;-68
2023/07/28 02:31:18;;;;;;;1.40;1.10;;;15.10;99.90;;;;;;5055035;28;20174;-70
2023/07/28 02:33:43;;;;;;;0.77;0.77;;;15.10;99.90;;;;;;5055598;28;20173;-70
2023/07/28 02:36:09;;;;;;;1.20;1.07;;;15.10;99.90;;;;;;5055320;28;20659;-70
2023/07/28 02:38:35;;;;;;;0.70;0.70;;;15.00;99.90;;;;;;5055248;28;20190;-69
2023/07/28 02:41:00;;;;;;;3.27;1.17;;;15.00;99.90;;;;;;5054997;28;20543;-71
2023/07/28 02:43:26;;;;;;;1.40;1.23;;;15.00;99.90;;;;;;5055067;28;20188;-68
2023/07/28 02:45:56;;;;;;;0.80;0.80;;;15.10;99.90;;;;;;5055045;28;20185;-69
2023/07/28 02:48:22;;;;;;;0.93;0.80;;;14.90;99.90;;;;;;5055121;28;20204;-71
2023/07/28 02:50:52;;;;;;;1.80;1.70;;;15.20;99.90;;;;;;5054663;28;20912;-70
2023/07/28 02:53:18;;;;;;;1.67;0.83;;;15.20;99.90;;;;;;5055081;28;20177;-70
2023/07/28 02:55:45;;;;;;;1.13;1.13;;;15.30;99.90;;;;;;5054848;28;20416;-70
2023/07/28 02:58:11;;;;;;;0.37;0.37;;;15.40;99.90;;;;;;5054951;28;20621;-70
2023/07/28 03:00:38;;;;;;;0.80;0.60;;;15.40;99.90;;;;;;5054627;28;20417;-70
2023/07/28 03:03:05;;;;;;;2.03;1.90;;;15.40;99.90;;;;;;5054723;28;20415;-69
2023/07/28 03:05:33;;;;;;;0.83;0.83;;;15.40;99.90;;;;;;5054673;28;20933;-68
2023/07/28 03:07:59;;;;;;;0.83;0.83;;;15.40;99.90;;;;;;5054766;28;20400;-69
2023/07/28 03:10:25;;;;;;;1.10;1.10;;;15.40;99.90;;;;;;5054382;28;20431;-68
2023/07/28 03:12:51;;;;;;;1.10;1.10;;;15.40;99.90;;;;;;5054245;28;20259;-70
2023/07/28 03:15:17;;;;;;;1.07;0.97;;;15.40;99.90;;;;;;5054435;28;20415;-68
2023/07/28 03:17:42;;;;;;;0.97;0.97;;;15.40;99.90;;;;;;5054529;28;20650;-69
2023/07/28 03:20:08;;;;;;;0.93;0.90;;;15.30;99.90;;;;;;5054388;28;20590;-68
2023/07/28 03:22:34;;;;;;;0.90;0.90;;;15.40;99.90;;;;;;5054374;28;20172;-70
2023/07/28 03:25:00;;;;;;;1.77;1.00;;;15.30;99.90;;;;;;5054219;28;20460;-69
2023/07/28 03:27:25;;;;;;;1.53;1.23;;;15.30;99.90;;;;;;5054360;28;20665;-70
2023/07/28 03:29:51;;;;;;;0.70;0.70;;;15.20;99.90;;;;;;5054118;28;20190;-71
2023/07/28 03:32:17;;;;;;;0.63;0.63;;;15.30;99.90;;;;;;5054026;28;20199;-69
2023/07/28 03:34:42;;;;;;;1.40;1.30;;;15.40;99.90;;;;;;5051708;28;20188;-69
2023/07/28 03:37:08;;;;;;;1.00;1.00;;;15.30;99.90;;;;;;5054665;28;20192;-69
2023/07/28 03:39:34;;;;;;;0.50;0.50;;;15.60;99.90;;;;;;5053457;28;20197;-70
2023/07/28 03:42:00;;;;;;;0.80;0.80;;;15.40;99.90;;;;;;5052840;28;20422;-70
2023/07/28 03:44:26;;;;;;;0.60;0.60;;;15.30;99.90;;;;;;5053919;28;20227;-69
2023/07/28 03:46:51;;;;;;;1.37;1.27;;;15.30;99.90;;;;;;5054009;28;20209;-71
2023/07/28 03:49:17;;;;;;;2.20;1.27;;;15.20;99.90;;;;;;5053469;28;20459;-70
2023/07/28 03:51:43;;;;;;;1.70;1.60;;;15.30;99.90;;;;;;5053664;28;20609;-70
2023/07/28 03:54:08;;;;;;;0.50;0.50;;;15.20;99.90;;;;;;5053847;28;20181;-69
2023/07/28 03:56:34;;;;;;;1.57;1.47;;;15.20;99.90;;;;;;5053786;28;20185;-71
2023/07/28 03:58:59;;;;;;;1.73;1.63;;;15.20;99.90;;;;;;5053416;28;20250;-69
2023/07/28 04:01:25;;;;;;;0.97;0.97;;;15.20;99.90;;;;;;5053529;28;20582;-70
2023/07/28 04:03:51;;;;;;;1.47;1.03;;;15.20;99.90;;;;;;5053482;28;20243;-68
2023/07/28 04:06:16;;;;;;;0.63;0.63;;;15.30;99.90;;;;;;5053637;28;20197;-70
2023/07/28 04:08:42;;;;;;;1.73;1.63;;;15.40;99.90;;;;;;5053376;28;20219;-68
2023/07/28 04:11:08;;;;;;;0.97;0.60;;;15.50;99.90;;;;;;5053405;28;20208;-71
2023/07/28 04:13:34;;;;;;;0.50;0.50;;;15.60;99.90;;;;;;5053523;28;20552;-70
2023/07/28 04:16:00;;;;;;;1.80;0.93;;;15.60;99.90;;;;;;5053544;28;20176;-70
2023/07/28 04:18:25;;;;;;;0.83;0.83;;;15.40;99.90;;;;;;5053408;28;20806;-70
2023/07/28 04:20:51;;;;;;;0.77;0.70;;;15.50;99.90;;;;;;5053152;28;20423;-70
2023/07/28 04:23:17;;;;;;;0.80;0.80;;;15.60;99.90;;;;;;5053315;28;20170;-71
2023/07/28 04:25:42;;;;;;;1.33;1.30;;;15.60;99.90;;;;;;5053187;28;20563;-69
2023/07/28 04:28:08;;;;;;;1.17;1.07;;;15.30;99.90;;;;;;5053216;28;20177;-70
2023/07/28 04:30:34;;;;;;;0.57;0.57;;;15.50;99.90;;;;;;5053269;28;20173;-70
2023/07/28 04:33:00;;;;;;;0.83;0.83;;;15.60;99.90;;;;;;5053170;28;20770;-69
2023/07/28 04:35:26;;;;;;;2.70;1.03;;;15.70;99.90;;;;;;5053049;28;20931;-70
2023/07/28 04:37:51;;;;;;;1.13;0.83;;;15.80;99.90;;;;;;5053317;28;20704;-69
2023/07/28 04:40:17;;;;;;;0.60;0.60;;;15.80;99.90;;;;;;5053169;28;20190;-70
2023/07/28 04:42:43;;;;;;;2.30;1.17;;;15.90;99.90;;;;;;5052921;28;20204;-69
2023/07/28 04:45:08;;;;;;;1.07;0.70;;;16.00;99.90;;;;;;5053673;28;20617;-70
2023/07/28 04:47:34;;;;;;;2.00;0.97;;;16.10;99.90;;;;;;5057390;28;20638;-70
2023/07/28 04:50:00;;;;;;;0.60;0.60;;;16.20;99.90;;;;;;5056969;28;20850;-70
2023/07/28 04:52:26;;;;;;;1.37;1.27;;;16.40;99.90;;;;;;5056975;28;20968;-71
2023/07/28 04:54:51;;;;;;;1.20;1.17;;;16.50;99.90;;;;;;5057158;28;20650;-70
2023/07/28 04:57:19;;;;;;;0.47;0.47;;;16.70;99.90;;;;;;5057098;28;20174;-70
2023/07/28 04:59:45;;;;;;;0.47;0.47;;;16.80;99.90;;;;;;5057086;28;20718;-69
2023/07/28 05:02:10;;;;;;;0.90;0.90;;;17.00;99.90;;;;;;5056789;28;20538;-69
2023/07/28 05:04:36;;;;;;;3.90;1.60;;;17.00;99.90;;;;;;5056692;28;20222;-69
2023/07/28 05:07:03;;;;;;;2.43;1.70;;;17.00;99.90;;;;;;5057013;28;20573;-69
2023/07/28 05:09:28;;;;;;;1.30;1.20;;;17.00;99.90;;;;;;5056735;28;20923;-69
2023/07/28 05:11:54;;;;;;;2.20;1.00;;;17.00;99.90;;;;;;5056599;28;20409;-70
2023/07/28 05:14:20;;;;;;;0.90;0.90;;;17.00;99.90;;;;;;5055331;28;20185;-70
2023/07/28 05:16:46;;;;;;;0.60;0.60;;;17.10;99.90;;;;;;5056433;28;20505;-69
2023/07/28 05:19:13;;;;;;;0.60;0.60;;;17.20;99.90;;;;;;5056685;28;20221;-70
2023/07/28 05:21:38;;;;;;;0.57;0.57;;;17.20;99.90;;;;;;5056522;28;20405;-70
2023/07/28 05:24:04;;;;;;;0.90;0.90;;;17.30;99.90;;;;;;5055547;28;20787;-70
2023/07/28 05:26:30;;;;;;;1.37;0.60;;;17.40;99.90;;;;;;5054970;28;20177;-69
2023/07/28 05:28:56;;;;;;;0.60;0.60;;;17.40;99.90;;;;;;5055869;28;20799;-70
2023/07/28 05:31:21;;;;;;;1.00;0.87;;;17.60;99.90;;;;;;5055757;28;20604;-71
2023/07/28 05:33:47;;;;;;;1.03;0.83;;;16.80;99.90;;;;;;5055790;28;20170;-71
2023/07/28 05:36:12;;;;;;;1.03;1.03;;;17.80;99.90;;;;;;5055837;28;20178;-70
2023/07/28 05:38:39;;;;;;;0.83;0.83;;;18.00;99.90;;;;;;5056229;28;20688;-69
2023/07/28 05:41:05;;;;;;;1.47;1.37;;;18.30;99.90;;;;;;5056179;28;20714;-69
2023/07/28 05:43:31;;;;;;;0.70;0.70;;;18.40;99.90;;;;;;5056374;28;20418;-69
2023/07/28 05:46:00;;;;;;;1.17;0.93;;;18.50;99.90;;;;;;5056425;28;20177;-69
2023/07/28 05:48:26;;;;;;;0.90;0.80;;;18.90;99.90;;;;;;5055997;28;20868;-70
2023/07/28 05:50:53;;;;;;;0.40;0.40;;;18.70;99.90;;;;;;5055901;28;20581;-70
2023/07/28 05:53:22;;;;;;;0.77;0.77;;;18.80;99.90;;;;;;5056149;28;20165;-71
2023/07/28 05:55:48;;;;;;;0.70;0.70;;;18.90;99.90;;;;;;5055634;28;20423;-69
2023/07/28 05:58:14;;;;;;;0.60;0.60;;;19.50;99.90;;;;;;5056070;28;20420;-69
2023/07/28 06:00:40;;;;;;;1.10;0.90;;;19.40;99.90;;;;;;5055699;28;20418;-69
2023/07/28 06:03:07;;;;;;;0.60;0.60;;;19.80;99.90;;;;;;5056197;28;20186;-69
2023/07/28 06:05:32;;;;;;;1.17;0.90;;;20.90;99.90;;;;;;5055840;28;20559;-70
2023/07/28 06:07:58;;;;;;;1.33;1.03;;;20.80;99.90;;;;;;5055785;28;20433;-69
2023/07/28 06:10:24;;;;;;;0.57;0.57;;;21.10;99.80;;;;;;5055414;28;20664;-70
2023/07/28 06:12:49;;;;;;;0.70;0.70;;;21.30;98.80;;;;;;5054334;28;20172;-70
2023/07/28 06:15:15;;;;;;;1.57;1.53;;;21.40;98.70;;;;;;5056085;28;20183;-69
2023/07/28 06:17:40;;;;;;;1.23;0.73;;;21.50;99.20;;;;;;5055667;28;20207;-69
2023/07/28 06:20:07;;;;;;;2.50;1.33;;;21.50;98.70;;;;;;5055785;28;20201;-69
2023/07/28 06:22:32;;;;;;;0.60;0.60;;;21.60;99.10;;;;;;5053972;28;20190;-70
2023/07/28 06:24:58;;;;;;;1.57;0.77;;;21.60;98.80;;;;;;5053067;28;20925;-70
2023/07/28 06:27:23;;;;;;;0.60;0.60;;;21.70;97.90;;;;;;5053416;28;20176;-70
2023/07/28 06:29:49;;;;;;;0.47;0.47;;;21.90;97.40;;;;;;5052429;28;20196;-71
2023/07/28 06:32:15;;;;;;;1.03;0.70;;;22.10;98.00;;;;;;5053581;28;20251;-68
2023/07/28 06:34:41;;;;;;;0.80;0.57;;;22.10;96.80;;;;;;5053990;28;20189;-70
2023/07/28 06:37:07;;;;;;;0.50;0.50;;;22.00;97.30;;;;;;5052644;28;20916;-69
2023/07/28 06:39:32;;;;;;;0.60;0.60;;;22.10;96.90;;;;;;5053928;28;20575;-70
2023/07/28 06:41:58;;;;;;;1.47;1.23;;;22.20;96.30;;;;;;5053710;28;20227;-70
2023/07/28 06:44:23;;;;;;;1.03;1.03;;;22.00;96.20;;;;;;5053924;28;20286;-68
2023/07/28 06:46:50;;;;;;;0.77;0.57;;;21.70;96.50;;;;;;5055040;28;20225;-69
2023/07/28 06:49:15;;;;;;;1.13;0.80;;;21.40;96.90;;;;;;5054768;28;20213;-70
2023/07/28 06:51:41;;;;;;;0.63;0.63;;;21.30;97.10;;;;;;5054869;28;20415;-70
2023/07/28 06:54:12;;;;;;;3.60;1.90;;;21.40;97.60;;;;;;5055059;28;20499;-70
2023/07/28 06:56:38;;;;;;;0.80;0.60;;;21.50;98.00;;;;;;5055056;28;20194;-71
2023/07/28 06:59:03;;;;;;;0.97;0.87;;;21.50;97.70;;;;;;5054722;28;20514;-71
2023/07/28 07:01:29;;;;;;;1.37;1.07;;;21.80;97.50;;;;;;5054826;28;20914;-70
2023/07/28 07:03:55;;;;;;;0.80;0.80;;;22.30;96.50;;;;;;5054739;28;20202;-70
2023/07/28 07:06:21;;;;;;;0.40;0.40;;;22.40;95.50;;;;;;5054745;28;20229;-71
2023/07/28 07:08:46;;;;;;;0.70;0.70;;;22.60;95.70;;;;;;5053856;28;20394;-70
2023/07/28 07:11:12;;;;;;;0.87;0.83;;;22.60;96.00;;;;;;5054560;28;20249;-71
2023/07/28 07:13:38;;;;;;;1.20;1.00;;;22.60;96.10;;;;;;5054566;28;20216;-71
2023/07/28 07:16:03;;;;;;;0.60;0.60;;;22.60;95.40;;;;;;5054759;28;20166;-70
2023/07/28 07:18:29;;;;;;;0.60;0.60;;;22.40;94.70;;;;;;5054448;28;20623;-71
2023/07/28 07:20:55;;;;;;;0.90;0.77;;;22.20;95.40;;;;;;5054500;28;20638;-71
2023/07/28 07:23:21;;;;;;;0.80;0.60;;;22.10;95.40;;;;;;5054461;28;20165;-71
2023/07/28 07:25:49;;;;;;;0.90;0.73;;;21.90;95.70;;;;;;5054175;28;20470;-69
2023/07/28 07:28:15;;;;;;;3.60;1.50;;;21.40;99.90;;;;;;5054065;28;20494;-69
2023/07/28 07:30:41;;;;;;;0.50;0.50;;;21.40;96.60;;;;;;5054049;28;20416;-69
2023/07/28 07:33:07;;;;;;;0.60;0.60;;;21.10;97.10;;;;;;5054134;28;20472;-70
2023/07/28 07:35:37;;;;;;;0.50;0.50;;;20.90;97.70;;;;;;5054515;28;20212;-71
2023/07/28 07:38:04;;;;;;;0.67;0.67;;;20.80;97.50;;;;;;5054189;28;20183;-70
2023/07/28 07:40:29;;;;;;;0.80;0.80;;;20.80;97.70;;;;;;5053917;28;20437;-70
2023/07/28 07:42:56;;;;;;;0.83;0.83;;;20.70;98.50;;;;;;5053891;28;20412;-71
2023/07/28 07:45:21;;;;;;;0.50;0.43;;;20.70;98.70;;;;;;5054165;28;20210;-69
2023/07/28 07:47:48;;;;;;;0.87;0.80;;;20.40;98.40;;;;;;5053933;28;20891;-69
2023/07/28 07:50:13;;;;;;;0.90;0.80;;;20.60;99.00;;;;;;5053631;28;20717;-69
2023/07/28 07:52:39;;;;;;;0.80;0.80;;;20.80;98.60;;;;;;5052338;28;20428;-71
2023/07/28 07:55:06;;;;;;;0.90;0.90;;;21.20;97.90;;;;;;5053840;28;20182;-68
2023/07/28 07:57:33;;;;;;;1.20;0.67;;;21.40;98.00;;;;;;5053603;28;20211;-69
2023/07/28 07:59:58;;;;;;;1.07;0.83;;;21.60;97.00;;;;;;5053558;28;20435;-69
2023/07/28 08:02:24;;;;;;;1.43;1.33;;;21.80;96.70;;;;;;5053560;28;20644;-70
2023/07/28 08:04:53;;;;;;;0.97;0.87;;;21.90;96.50;;;;;;5053428;28;20204;-68
2023/07/28 08:07:19;;;;;;;0.63;0.47;;;21.90;96.40;;;;;;5053791;28;20265;-68
2023/07/28 08:09:45;;;;;;;1.17;1.00;;;22.00;96.20;;;;;;5053467;28;20938;-70
2023/07/28 08:12:12;;;;;;;1.23;0.80;;;22.60;96.70;;;;;;5053363;28;20409;-70
2023/07/28 08:14:38;;;;;;;0.80;0.60;;;24.20;95.70;;;;;;5053760;28;20176;-70
2023/07/28 08:17:03;;;;;;;4.73;0.87;;;25.80;92.80;;;;;;5053525;28;20773;-69
2023/07/28 08:19:29;;;;;;;1.80;1.10;;;26.70;90.80;;;;;;5053414;28;20194;-71
2023/07/28 08:21:55;;;;;;;0.40;0.40;;;27.10;87.30;;;;;;5051783;28;20231;-70
2023/07/28 08:24:20;;;;;;;2.40;0.73;;;27.90;84.40;;;;;;5053863;28;20225;-71
2023/07/28 08:26:46;;;;;;;0.60;0.60;;;28.30;83.20;;;;;;5053128;28;20687;-70
2023/07/28 08:29:11;;;;;;;0.83;0.60;;;28.30;81.80;;;;;;5053314;28;20186;-71
2023/07/28 08:31:37;;;;;;;0.80;0.60;;;27.80;83.00;;;;;;5050680;28;20543;-71
2023/07/28 08:34:03;;;;;;;0.70;0.70;;;27.10;83.10;;;;;;5052173;28;20179;-71
2023/07/28 08:36:29;;;;;;;1.20;1.10;;;27.20;84.20;;;;;;5052486;28;20694;-71
2023/07/28 08:38:54;;;;;;;0.90;0.70;;;27.30;82.80;;;;;;5051179;28;20614;-71
2023/07/28 08:41:20;;;;;;;0.87;0.70;;;27.10;83.50;;;;;;5051251;28;20208;-71
2023/07/28 08:43:46;;;;;;;0.47;0.43;;;27.30;82.20;;;;;;5051253;28;20248;-69
2023/07/28 08:46:12;;;;;;;0.50;0.50;;;28.00;81.00;;;;;;5051186;28;20253;-71
2023/07/28 08:48:37;;;;;;;1.20;1.10;;;27.10;78.20;;;;;;5053077;28;20259;-72
2023/07/28 08:51:04;;;;;;;1.00;0.70;;;29.20;76.50;;;;;;5052658;28;20189;-70
2023/07/28 08:53:30;;;;;;;0.57;0.57;;;29.30;75.50;;;;;;5051446;28;20413;-72
2023/07/28 08:55:56;;;;;;;1.03;0.90;;;29.30;76.00;;;;;;5052954;28;20491;-71
2023/07/28 08:58:24;;;;;;;0.70;0.57;;;28.20;94.60;;;;;;5052931;28;20492;-70
2023/07/28 09:00:52;;;;;;;0.80;0.60;;;28.20;76.60;;;;;;5053135;28;20418;-70
2023/07/28 09:03:18;;;;;;;0.70;0.70;;;28.70;79.50;;;;;;5052914;28;20485;-71
2023/07/28 09:05:46;;;;;;;0.67;0.67;;;29.10;75.00;;;;;;5052983;28;20535;-71
2023/07/28 09:08:13;;;;;;;1.07;0.90;;;29.30;90.60;;;;;;5052943;28;20412;-70
2023/07/28 09:10:48;;;;;;;0.70;0.70;;;29.40;75.70;;;;;;5052746;28;20416;-72
2023/07/28 09:13:14;;;;;;;2.93;1.03;;;29.90;72.80;;;;;;5052970;28;20487;-70
2023/07/28 09:15:40;;;;;;;0.63;0.63;;;30.50;71.20;;;;;;5052996;28;20479;-70
2023/07/28 09:18:10;;;;;;;1.93;0.90;;;30.60;70.90;;;;;;5052827;28;20412;-72
2023/07/28 09:20:37;;;;;;;0.70;0.70;;;30.50;68.40;;;;;;5052816;28;20175;-72
2023/07/28 09:23:05;;;;;;;0.80;0.50;;;30.10;68.30;;;;;;5052934;28;20509;-72
2023/07/28 09:25:31;;;;;;;0.90;0.70;;;29.50;72.10;;;;;;5053028;28;20488;-71
2023/07/28 09:27:57;;;;;;;0.93;0.60;;;29.10;73.10;;;;;;5052918;28;20409;-72
2023/07/28 09:30:24;;;;;;;0.70;0.70;;;28.80;75.60;;;;;;5052643;28;20503;-72
2023/07/28 09:32:54;;;;;;;0.60;0.60;;;28.60;73.10;;;;;;5055952;28;20765;-70
2023/07/28 09:35:21;;;;;;;2.07;1.30;;;28.50;74.40;;;;;;5056641;28;20404;-72
2023/07/28 09:37:52;;;;;;;0.80;0.80;;;28.50;75.70;;;;;;5056339;28;20405;-71
2023/07/28 09:40:22;;;;;;;0.80;0.70;;;28.80;76.80;;;;;;5056323;28;20519;-70
2023/07/28 09:42:50;;;;;;;0.80;0.77;;;29.00;74.60;;;;;;5056227;28;20806;-71
2023/07/28 09:45:17;;;;;;;0.77;0.77;;;29.10;75.10;;;;;;5056350;28;20513;-70
2023/07/28 09:47:47;;;;;;;0.60;0.60;;;29.90;73.80;;;;;;5056331;28;20411;-72
2023/07/28 09:50:18;;;;;;;0.70;0.70;;;30.60;72.30;;;;;;5055989;28;20457;-72
2023/07/28 09:52:46;;;;;;;1.60;0.93;;;31.40;69.00;;;;;;5055857;28;20466;-72
2023/07/28 09:55:15;;;;;;;0.80;0.80;;;31.50;69.70;;;;;;5056076;28;20443;-71
2023/07/28 09:57:51;;;;;;;0.80;0.73;;;31.20;67.50;;;;;;5056167;28;20751;-72
2023/07/28 10:00:18;;;;;;;1.17;0.70;;;31.00;65.70;;;;;;5055800;28;20924;-72
2023/07/28 10:02:45;;;;;;;1.20;0.90;;;30.80;65.00;;;;;;5055832;28;20413;-71
2023/07/28 10:05:11;;;;;;;1.37;1.00;;;30.50;65.20;;;;;;5055887;28;20513;-72
2023/07/28 10:07:40;;;;;;;0.53;0.53;;;29.90;67.50;;;;;;5056287;28;20900;-70
2023/07/28 10:10:09;;;;;;;2.50;1.20;;;29.90;68.80;;;;;;5055644;28;20468;-71
2023/07/28 10:12:51;;;;;;;0.60;0.60;;;30.30;67.90;;;;;;5055540;28;20416;-72
2023/07/28 10:15:18;;;;;;;0.83;0.53;;;30.60;68.30;;;;;;5055943;28;20404;-72
2023/07/28 10:17:49;;;;;;;1.07;0.73;;;30.70;66.00;;;;;;5056051;28;20441;-71
2023/07/28 10:20:41;;;;;;;0.77;0.60;;;30.40;64.70;;;;;;5055548;28;20805;-71
2023/07/28 10:23:14;;;;;;;1.40;1.00;;;29.60;67.70;;;;;;5056175;28;20474;-72
2023/07/28 10:25:40;;;;;;;0.83;0.83;;;29.10;70.20;;;;;;5055356;28;20492;-72
2023/07/28 10:28:27;;;;;;;0.97;0.93;;;28.80;72.00;;;;;;5055487;28;20401;-70
2023/07/28 10:30:54;;;;;;;0.73;0.73;;;28.70;72.20;;;;;;5054659;28;20417;-70
2023/07/28 10:33:33;;;;;;;1.47;1.23;;;28.90;72.40;;;;;;5055411;28;20413;-70
2023/07/28 10:36:10;;;;;;;0.90;0.90;;;28.60;68.20;;;;;;5055306;28;20416;-71
2023/07/28 10:38:37;;;;;;;0.93;0.93;;;27.70;71.40;;;;;;5055189;28;20438;-71
2023/07/28 10:41:30;;;;;;;1.10;1.00;;;27.30;74.40;;;;;;5055092;28;20413;-70
2023/07/28 10:43:56;;;;;;;0.70;0.63;;;26.80;74.30;;;;;;5053429;28;20432;-71
2023/07/28 10:46:22;;;;;;;0.80;0.80;;;26.50;74.60;;;;;;5055125;28;20409;-71
2023/07/28 10:48:49;;;;;;;0.90;0.70;;;26.10;78.10;;;;;;5055101;28;20688;-72
2023/07/28 10:51:28;;;;;;;1.37;0.93;;;25.80;76.60;;;;;;5054816;28;20182;-70
2023/07/28 10:53:57;;;;;;;1.00;0.60;;;25.70;78.70;;;;;;5055260;28;20401;-70
2023/07/28 10:56:24;;;;;;;0.80;0.80;;;25.60;78.50;;;;;;5054985;28;20411;-71
2023/07/28 10:59:00;;;;;;;1.27;1.00;;;25.40;80.70;;;;;;5054844;28;20425;-71
2023/07/28 11:01:36;;;;;;;1.20;1.10;;;25.20;82.30;;;;;;5054937;28;20371;-70
2023/07/28 11:04:19;;;;;;;1.27;0.70;;;25.00;83.90;;;;;;5054483;28;20471;-72
2023/07/28 11:06:47;;;;;;;2.03;0.70;;;24.50;82.70;;;;;;5054498;28;20414;-71
2023/07/28 11:09:18;;;;;;;1.13;0.90;;;24.20;84.10;;;;;;5054654;28;20482;-72
2023/07/28 11:11:45;;;;;;;0.60;0.50;;;24.20;86.10;;;;;;5054329;28;20375;-71
2023/07/28 11:14:10;;;;;;;1.17;0.57;;;24.10;87.10;;;;;;5054592;28;20385;-72
2023/07/28 11:16:38;;;;;;;0.50;0.50;;;24.10;86.40;;;;;;5054491;28;20496;-70
2023/07/28 11:19:11;;;;;;;1.13;0.70;;;24.20;87.70;;;;;;5054396;28;20194;-71
2023/07/28 11:21:38;;;;;;;1.23;0.77;;;24.20;89.00;;;;;;5054365;28;20417;-71
2023/07/28 11:24:05;;;;;;;0.50;0.50;;;23.80;86.90;;;;;;5054697;28;20423;-71
2023/07/28 11:26:30;;;;;;;0.90;0.90;;;24.00;87.60;;;;;;5054352;28;20484;-71
2023/07/28 11:28:57;;;;;;;0.70;0.70;;;24.30;87.70;;;;;;5054191;28;20494;-70
2023/07/28 11:31:26;;;;;;;1.23;0.60;;;24.60;85.30;;;;;;5054069;28;20589;-71
2023/07/28 11:33:53;;;;;;;0.97;0.97;;;24.70;88.20;;;;;;5054251;28;20380;-71
2023/07/28 11:36:29;;;;;;;0.40;0.40;;;24.80;89.30;;;;;;5054881;28;20386;-71
2023/07/28 11:38:58;;;;;;;0.70;0.60;;;25.00;87.90;;;;;;5053953;28;20424;-70
2023/07/28 11:41:25;;;;;;;1.50;1.00;;;25.00;86.30;;;;;;5053925;28;20432;-72
2023/07/28 11:43:51;;;;;;;0.70;0.70;;;25.40;85.80;;;;;;5054153;28;20383;-71
2023/07/28 11:46:36;;;;;;;0.70;0.60;;;25.60;84.50;;;;;;5054001;28;20774;-70
2023/07/28 11:49:18;;;;;;;0.80;0.77;;;25.60;84.60;;;;;;5053757;28;20473;-71
2023/07/28 11:51:46;;;;;;;1.20;1.10;;;25.60;83.60;;;;;;5053965;28;20403;-70
2023/07/28 11:54:21;;;;;;;0.87;0.87;;;25.30;83.40;;;;;;5053554;28;20461;-70
2023/07/28 11:56:48;;;;;;;0.60;0.60;;;24.80;85.60;;;;;;5053979;28;20402;-71
2023/07/28 11:59:18;;;;;;;0.73;0.70;;;24.60;87.50;;;;;;5053653;28;20403;-71
2023/07/28 12:01:54;;;;;;;0.50;0.50;;;24.80;86.10;;;;;;5053482;28;20405;-71
2023/07/28 12:04:30;;;;;;;0.63;0.50;;;25.00;86.60;;;;;;5053737;28;20494;-71
2023/07/28 12:07:16;;;;;;;2.40;1.47;;;24.80;86.90;;;;;;5053797;28;20870;-70
2023/07/28 12:09:59;;;;;;;1.60;1.30;;;24.30;85.40;;;;;;5053611;28;20402;-72
2023/07/28 12:12:29;;;;;;;1.20;1.10;;;24.40;90.10;;;;;;5053475;28;20375;-71
2023/07/28 12:14:58;;;;;;;1.30;1.23;;;24.30;87.40;;;;;;5053587;28;20920;-71
2023/07/28 12:17:27;;;;;;;1.33;0.80;;;24.20;89.00;;;;;;5053666;28;20736;-72
2023/07/28 12:20:10;;;;;;;1.00;0.83;;;24.00;86.20;;;;;;5053294;28;20746;-70
2023/07/28 12:22:47;;;;;;;0.90;0.90;;;24.00;89.10;;;;;;5053192;28;20408;-71
2023/07/28 12:25:13;;;;;;;2.03;1.20;;;24.00;90.00;;;;;;5053415;28;20456;-71
2023/07/28 12:27:38;;;;;;;0.90;0.70;;;23.50;90.00;;;;;;5053437;28;20467;-72
2023/07/28 12:30:04;;;;;;;1.27;1.17;;;23.80;89.20;;;;;;5053214;28;20239;-71
2023/07/28 12:32:30;;;;;;;1.20;1.10;;;23.70;90.10;;;;;;5053026;28;20166;-69
2023/07/28 12:34:56;;;;;;;0.80;0.80;;;23.70;90.70;;;;;;5053197;28;20466;-71
2023/07/28 12:37:21;;;;;;;0.70;0.70;;;23.70;90.70;;;;;;5053085;28;20206;-72
2023/07/28 12:39:49;;;;;;;1.33;1.23;;;23.70;91.00;;;;;;5053226;28;20185;-70
2023/07/28 12:42:14;;;;;;;1.57;1.47;;;23.60;91.10;;;;;;5053011;28;20173;-72
2023/07/28 12:44:42;;;;;;;0.73;0.70;;;23.60;90.40;;;;;;5053115;28;20451;-70
2023/07/28 12:47:08;;;;;;;0.40;0.40;;;23.70;90.20;;;;;;5053120;28;20235;-72
2023/07/28 12:49:36;;;;;;;1.53;1.07;;;24.10;90.90;;;;;;5052944;28;20423;-70